Airports Ireland Shannon Airport

Shannon Airport (EINN / SNN)

Facts about Shannon Airport

Name Shannon Airport
City Shannon
Country Ireland
ICAO code EINN
IATA code SNN
Elevation 14.0208 meters (46 feet)

Weather

METAR

Metar data retrieved Saturday, 20 July 2024 at 00:55 UTC (16 minutes ago)

EINN 200030Z 12008KT 9999 -RA BKN033 OVC036 15/14 Q1006 NOSIG

Live traffic

Navigraph Charts (account required)